Allison Rachel — WDF7157 — position and weather

sailwx.info

Track history (hours):
 
Tides and Currents Weather Stations Pressure Air Temp Water Temp Dewpoint Dewpoint Depression Visibility Wind Speed Wind Dir Waves Ship Positions

Allison Rachel

Owner: M/V Allison Rachel, Granite City, IL. More information available from US FCC via Universal Licensing System and Coast Guard Vessel Documentation Center.

Last reported at 2018-May-15 14:18 UTC. Time now 2018-Jun-23 06:21 UTC.
Position N 38°35' W 090°12'.
Warning: this ship's position is 38 days out of date.

Length 21 m.

Type: Ship. MMSI: 367481670.

Date/timePositionNaut miles runAvg speedWind from/ knotsBaromVisibWave heightAir tempDewpointWater temp
2018-May-15 14:18N 38°35' W 090°12'0 0.4
2018-May-15 14:00N 38°35' W 090°12'0 0.2
2018-May-15 13:30N 38°35' W 090°12'0 0.3
2018-May-15 12:58N 38°35' W 090°12'0 0.0
2018-May-15 12:30N 38°35' W 090°12'0 0.2
2018-May-15 11:57N 38°35' W 090°12'0 0.3
2018-May-15 11:24N 38°35' W 090°12'0 0.0
2018-May-15 11:00N 38°35' W 090°12'0 0.5
2018-May-15 10:29N 38°36' W 090°12'0 0.0
2018-May-15 10:01N 38°36' W 090°12'0 0.0
2018-May-15 09:30N 38°36' W 090°12'0 0.3
2018-May-15 09:00N 38°35' W 090°12'0 0.0
2018-May-15 08:03N 38°35' W 090°12'0 0.0
2018-May-15 07:50N 38°35' W 090°12'0 0.4
2018-May-15 07:30N 38°35' W 090°12'0 0.2
2018-May-15 07:01N 38°35' W 090°12'0 0.4
2018-May-15 06:30N 38°36' W 090°12'0 0.0
2018-May-15 06:00N 38°36' W 090°12'0 0.1
2018-May-15 05:30N 38°36' W 090°12'0 0.5
2018-May-15 05:00N 38°35' W 090°12'0 0.0
2018-May-15 04:30N 38°35' W 090°12'1 1.0
2018-May-15 04:00N 38°36' W 090°12'3 5.0
2018-May-15 03:30N 38°38' W 090°11'0 0.2
2018-May-15 03:00N 38°38' W 090°11'0 0.1
2018-May-15 02:30N 38°38' W 090°11'0 0.0
2018-May-15 01:38N 38°38' W 090°11'0 0.2
2018-May-15 01:22N 38°38' W 090°11'0 0.9
2018-May-15 01:00N 38°38' W 090°11'2 3.8
2018-May-15 00:30N 38°36' W 090°12'0 0.5
2018-May-15 00:00N 38°36' W 090°12'0 0.1
2018-May-14 23:30N 38°36' W 090°12'0 0.3
2018-May-14 22:14N 38°35' W 090°12'0 0.1
2018-May-14 21:14N 38°36' W 090°12'0 0.2
2018-May-14 20:57N 38°35' W 090°12'0 0.1
2018-May-14 20:20N 38°35' W 090°12'0 0.0
2018-May-14 19:13N 38°35' W 090°12'0 0.0
2018-May-14 18:55N 38°35' W 090°12'0 0.1
2018-May-14 18:30N 38°35' W 090°12'0 0.1
2018-May-14 17:59N 38°35' W 090°12'0 0.2
2018-May-14 16:56N 38°35' W 090°12'0 0.1
2018-May-14 16:30N 38°35' W 090°12'0 0.3
2018-May-14 15:52N 38°35' W 090°12'0 0.3
2018-May-14 15:24N 38°36' W 090°12'0 0.3
2018-May-14 14:56N 38°35' W 090°12'0 0.0
2018-May-14 14:23N 38°35' W 090°12'0 0.4
2018-May-14 14:00N 38°36' W 090°12'0 0.1
2018-May-14 13:26N 38°35' W 090°12'0 0.2
2018-May-14 12:56N 38°35' W 090°12'0 0.1
2018-May-14 12:30N 38°35' W 090°12'0 0.6
2018-May-14 11:55N 38°36' W 090°12'0 0.1
2018-May-14 11:30N 38°36' W 090°12'0 0.5
2018-May-14 10:34N 38°35' W 090°12'0 1.2
2018-May-14 10:30N 38°35' W 090°12'0 0.0
2018-May-14 09:59N 38°35' W 090°12'0 0.7
2018-May-14 09:30N 38°36' W 090°12'0 0.1
2018-May-14 09:01N 38°36' W 090°12'0 0.1
2018-May-14 08:30N 38°36' W 090°12'0 0.0
2018-May-14 08:01N 38°36' W 090°12'0 0.1
2018-May-14 07:30N 38°36' W 090°12'0 0.0
2018-May-14 07:00N 38°36' W 090°12'0 0.1
2018-May-14 06:28N 38°36' W 090°12'0 0.0
2018-May-14 06:00N 38°36' W 090°12'0 0.0
2018-May-14 05:30N 38°36' W 090°12'0 0.0
2018-May-14 05:00N 38°36' W 090°12'0 0.0
2018-May-14 04:24N 38°36' W 090°12'0 0.3
2018-May-14 04:00N 38°36' W 090°12'0 0.3
2018-May-14 03:30N 38°35' W 090°12'0 0.0
2018-May-14 02:09N 38°35' W 090°12'0 0.7
2018-May-14 01:59N 38°36' W 090°12'0 0.2
2018-May-14 01:27N 38°35' W 090°12'0 0.5
2018-May-14 01:00N 38°35' W 090°12'0 0.4
2018-May-14 00:30N 38°35' W 090°12'5 0.7
2018-May-13 17:03N 38°41' W 090°11'011.0
2018-May-13 17:00N 38°41' W 090°11'1 0.5
2018-May-13 15:39N 38°42' W 090°11'1 4.4
2018-May-13 15:30N 38°41' W 090°11'1 2.7
2018-May-13 15:00N 38°40' W 090°11'1 2.3
2018-May-13 14:30N 38°39' W 090°11'0 0.7
2018-May-13 14:00N 38°38' W 090°11'2 3.2
2018-May-13 13:30N 38°37' W 090°11'1 1.0
2018-May-13 12:25N 38°36' W 090°12'0 0.2
2018-May-13 12:00N 38°36' W 090°12'0 0.6
2018-May-13 11:19N 38°35' W 090°12'0 0.0
2018-May-13 10:46N 38°35' W 090°12'2 8.0
2018-May-13 10:30N 38°37' W 090°11'2 4.1
2018-May-13 10:01N 38°39' W 090°11'0 0.0
2018-May-13 09:30N 38°39' W 090°11'0 0.0
2018-May-13 09:00N 38°39' W 090°11'0 0.0
2018-May-13 08:31N 38°39' W 090°11'0 0.0
2018-May-13 08:00N 38°39' W 090°11'0 0.0
2018-May-13 07:30N 38°39' W 090°11'0 0.0
2018-May-13 07:00N 38°39' W 090°11'0 0.0
2018-May-13 06:30N 38°39' W 090°11'0 0.0
2018-May-13 05:59N 38°39' W 090°11'0 0.0
2018-May-13 05:30N 38°39' W 090°11'0 0.0
2018-May-13 04:59N 38°39' W 090°11'0 0.1
2018-May-13 04:27N 38°39' W 090°11'0 0.1
2018-May-13 04:00N 38°39' W 090°11'0 0.1
2018-May-13 03:30N 38°39' W 090°11'0 0.1
2018-May-13 03:00N 38°39' W 090°11'1 2.4
2018-May-13 02:30N 38°38' W 090°11'0 0.2
2018-May-13 00:48N 38°38' W 090°11'0 0.0
2018-May-13 00:30N 38°38' W 090°11'2 3.2
2018-May-13 00:00N 38°36' W 090°11'1 2.2
2018-May-12 23:28N 38°35' W 090°12'0 0.0
2018-May-12 22:28N 38°35' W 090°12'0 0.8
2018-May-12 21:59N 38°36' W 090°12'0 0.2
2018-May-12 20:03N 38°35' W 090°12'0 0.0
2018-May-12 19:56N 38°35' W 090°12'0 0.0
2018-May-12 19:29N 38°35' W 090°12'0 0.0
2018-May-12 18:54N 38°35' W 090°12'0 0.0
2018-May-12 18:27N 38°35' W 090°12'0 0.4
2018-May-12 18:00N 38°36' W 090°12'0 0.1
2018-May-12 17:30N 38°36' W 090°12'0 0.1
2018-May-12 16:59N 38°35' W 090°12'0 0.0
2018-May-12 16:29N 38°35' W 090°12'0 0.2
2018-May-12 15:59N 38°35' W 090°12'0 0.2
2018-May-12 15:27N 38°35' W 090°12'0 0.0
2018-May-12 13:51N 38°35' W 090°12'0 0.4
2018-May-12 13:30N 38°36' W 090°12'0 0.5
2018-May-12 12:45N 38°35' W 090°12'0 0.1
2018-May-12 12:30N 38°35' W 090°12'0 0.1
2018-May-12 11:59N 38°35' W 090°12'0 0.0
2018-May-12 11:24N 38°35' W 090°12'0 0.3
2018-May-12 11:00N 38°35' W 090°12'0 0.0
2018-May-12 10:30N 38°35' W 090°12'0 0.2
2018-May-12 09:40N 38°36' W 090°12'0 0.4
2018-May-12 09:30N 38°36' W 090°12'0 0.3
2018-May-12 08:58N 38°35' W 090°12'0 0.2
2018-May-12 08:26N 38°35' W 090°12'0 0.1
2018-May-12 08:00N 38°35' W 090°12'0 0.5
2018-May-12 07:29N 38°35' W 090°12'1 2.0
2018-May-12 06:58N 38°36' W 090°12'4 9.1
2018-May-12 06:30N 38°40' W 090°11'2 3.6
2018-May-12 06:00N 38°42' W 090°11'1 1.5
2018-May-12 05:29N 38°43' W 090°10'0 0.8
2018-May-12 05:00N 38°42' W 090°11'1 1.1
2018-May-12 04:31N 38°42' W 090°11'0 0.7
2018-May-12 04:00N 38°42' W 090°11'0 0.1
2018-May-12 03:30N 38°42' W 090°11'0 0.1
2018-May-12 03:00N 38°42' W 090°11'1 1.4
2018-May-12 02:30N 38°41' W 090°11'2 4.5
2018-May-12 02:00N 38°39' W 090°11'2 4.2
2018-May-12 01:29N 38°37' W 090°11'0 0.1
2018-May-12 00:58N 38°37' W 090°11'1 0.8
2018-May-11 23:57N 38°36' W 090°12'0 0.3
2018-May-11 22:34N 38°36' W 090°11'311.4
2018-May-11 22:20N 38°39' W 090°11'1 1.3
2018-May-11 21:55N 38°39' W 090°11'0 0.1
2018-May-11 21:30N 38°39' W 090°11'0 0.2
2018-May-11 20:59N 38°39' W 090°11'0 0.0
2018-May-11 20:29N 38°39' W 090°11'0 0.0
2018-May-11 19:58N 38°39' W 090°11'0 0.0
2018-May-11 19:30N 38°39' W 090°11'0 0.0
2018-May-11 18:16N 38°39' W 090°11'0 0.3
2018-May-11 17:59N 38°39' W 090°11'1 1.9
2018-May-11 17:22N 38°38' W 090°11'0 0.5
2018-May-11 17:00N 38°38' W 090°11'0 0.8
2018-May-11 16:30N 38°38' W 090°11'0 0.8
2018-May-11 15:59N 38°38' W 090°11'1 2.1
2018-May-11 15:22N 38°39' W 090°11'0 0.2
2018-May-11 14:57N 38°39' W 090°11'0 0.2
2018-May-11 14:26N 38°39' W 090°11'0 0.2
2018-May-11 13:54N 38°39' W 090°11'0 0.1
2018-May-11 13:30N 38°39' W 090°11'1 1.6
2018-May-11 12:59N 38°39' W 090°11'0 0.2
2018-May-11 12:28N 38°38' W 090°11'2 4.3
2018-May-11 11:57N 38°36' W 090°11'1 1.9
2018-May-11 11:30N 38°36' W 090°12'0 0.4
2018-May-11 10:56N 38°35' W 090°12'1 1.3
2018-May-11 10:29N 38°36' W 090°12'2 4.1
2018-May-11 09:56N 38°38' W 090°11'0 0.0
2018-May-11 09:29N 38°38' W 090°11'1 1.1
2018-May-11 09:00N 38°39' W 090°11'0 1.0
2018-May-11 08:30N 38°38' W 090°11'0 0.1
2018-May-11 07:58N 38°38' W 090°11'2 3.9
2018-May-11 07:30N 38°36' W 090°11'2 4.1
2018-May-11 06:54N 38°34' W 090°13'4 3.7
2018-May-11 05:54N 38°37' W 090°11'1 1.3
2018-May-11 05:28N 38°38' W 090°11'0 0.0
2018-May-11 05:00N 38°38' W 090°11'0 0.4
2018-May-11 04:29N 38°38' W 090°11'1 1.5
2018-May-11 04:00N 38°37' W 090°11'0 0.0
2018-May-11 03:29N 38°37' W 090°11'1 1.8
2018-May-11 03:00N 38°38' W 090°11'0 0.1
2018-May-11 02:24N 38°38' W 090°11'1 1.3
2018-May-11 02:00N 38°39' W 090°11'2 3.8
2018-May-11 01:24N 38°36' W 090°11'3 4.8
2018-May-11 00:51N 38°34' W 090°13'1 2.4
2018-May-11 00:18N 38°35' W 090°12'0 0.8
2018-May-10 23:42N 38°36' W 090°12'0 0.1
2018-May-10 21:44N 38°36' W 090°12'0 0.2
2018-May-10 21:30N 38°36' W 090°12'0 0.2
2018-May-10 20:56N 38°36' W 090°12'0 0.0
2018-May-10 20:06N 38°36' W 090°12'0 0.0
2018-May-10 19:56N 38°36' W 090°12'0 0.1
2018-May-10 17:24N 38°35' W 090°12'2 4.5
2018-May-10 17:00N 38°37' W 090°11'1 1.8
2018-May-10 16:27N 38°36' W 090°11'1 0.7
2018-May-10 15:00N 38°35' W 090°12'0 0.2
2018-May-10 14:30N 38°35' W 090°12'0 0.6
2018-May-10 13:59N 38°35' W 090°12'1 2.1
2018-May-10 13:19N 38°35' W 090°13'0 0.4
2018-May-10 13:00N 38°35' W 090°13'1 2.9
2018-May-10 12:30N 38°36' W 090°12'0 0.2
2018-May-10 12:00N 38°36' W 090°12'0 0.3
2018-May-10 11:30N 38°35' W 090°12'0 0.1
2018-May-10 11:00N 38°35' W 090°12'0 0.1
2018-May-10 10:30N 38°35' W 090°12'3 5.9
2018-May-10 10:00N 38°38' W 090°11'1 2.6
2018-May-10 09:30N 38°39' W 090°11'0 0.0
2018-May-10 09:00N 38°39' W 090°11'0 0.0
2018-May-10 08:15N 38°39' W 090°11'0 0.1
2018-May-10 07:59N 38°39' W 090°11'0 0.1
2018-May-10 07:30N 38°39' W 090°11'0 0.1
2018-May-10 07:00N 38°39' W 090°11'0 0.1
2018-May-10 06:30N 38°39' W 090°11'0 0.4
2018-May-10 06:00N 38°39' W 090°11'0 0.3
2018-May-10 05:30N 38°39' W 090°11'0 0.0
2018-May-10 05:00N 38°39' W 090°11'0 0.0
2018-May-10 04:30N 38°39' W 090°11'0 0.1
2018-May-10 04:00N 38°39' W 090°11'0 0.1
2018-May-10 03:30N 38°39' W 090°11'0 0.0
2018-May-10 03:00N 38°39' W 090°11'1 1.3
2018-May-10 02:30N 38°39' W 090°11'1 1.1
2018-May-10 01:59N 38°38' W 090°11'0 0.3
2018-May-10 01:30N 38°38' W 090°11'1 1.0
2018-May-10 01:00N 38°39' W 090°11'1 1.5
2018-May-10 00:29N 38°38' W 090°11'2 2.7
2018-May-09 23:38N 38°36' W 090°12'3 0.2
2018-May-09 08:24N 38°39' W 090°11'1 1.8
2018-May-09 07:59N 38°38' W 090°11'0 0.5
2018-May-09 07:30N 38°38' W 090°11'1 1.2
2018-May-09 07:00N 38°39' W 090°11'0 0.8
2018-May-09 06:30N 38°38' W 090°11'0 0.0
2018-May-09 05:31N 38°38' W 090°11'0 0.0
2018-May-09 05:30N 38°38' W 090°11'0 0.0
2018-May-09 05:00N 38°38' W 090°11'0 0.3
2018-May-09 04:30N 38°38' W 090°11'1 2.1
2018-May-09 04:00N 38°39' W 090°11'0 0.4
2018-May-09 03:30N 38°39' W 090°11'0 0.1
2018-May-09 03:00N 38°39' W 090°11'0 0.1
2018-May-09 02:30N 38°39' W 090°11'0 0.3
2018-May-09 02:00N 38°39' W 090°11'0 0.4
2018-May-09 01:30N 38°39' W 090°11'0 0.9
2018-May-09 01:00N 38°39' W 090°11'3 5.1
2018-May-09 00:30N 38°36' W 090°11'3 4.4
2018-May-08 23:55N 38°34' W 090°13'2 3.7
2018-May-08 23:30N 38°35' W 090°12'0 0.0
2018-May-08 22:29N 38°35' W 090°12'0 0.3
2018-May-08 21:48N 38°35' W 090°12'0 0.0
2018-May-08 19:45N 38°35' W 090°12'0 0.3
2018-May-08 19:29N 38°35' W 090°12'0 0.0
2018-May-08 19:00N 38°35' W 090°12'0 0.2
2018-May-08 17:35N 38°35' W 090°12'0 1.2
2018-May-08 17:30N 38°36' W 090°12'0 0.1
2018-May-08 16:58N 38°36' W 090°12'0 0.2
2018-May-08 16:29N 38°36' W 090°12'0 0.2
2018-May-08 15:59N 38°36' W 090°12'1 1.3
2018-May-08 14:48N 38°35' W 090°13'1 2.4
2018-May-08 14:13N 38°35' W 090°12'0 0.3
2018-May-08 13:16N 38°36' W 090°12'0 0.5
2018-May-08 13:00N 38°36' W 090°12'0 0.2
2018-May-08 12:28N 38°35' W 090°12'0 0.2
2018-May-08 12:00N 38°36' W 090°12'0 0.5
2018-May-08 11:30N 38°35' W 090°12'0 0.0
2018-May-08 11:00N 38°35' W 090°12'0 0.7
2018-May-08 10:30N 38°36' W 090°12'0 0.0
2018-May-08 10:00N 38°36' W 090°12'0 0.3
2018-May-08 09:30N 38°36' W 090°12'0 0.1
2018-May-08 08:59N 38°36' W 090°12'0 0.9
2018-May-08 08:30N 38°35' W 090°12'0 0.0
2018-May-08 08:00N 38°35' W 090°12'0 0.3
2018-May-08 07:29N 38°35' W 090°12'0 0.0
2018-May-08 07:00N 38°35' W 090°12'0 0.3
2018-May-08 06:30N 38°35' W 090°12'0 0.2
2018-May-08 06:00N 38°35' W 090°12'0 0.2
2018-May-08 05:30N 38°35' W 090°12'0 0.3
2018-May-08 05:00N 38°35' W 090°12'0 0.2
2018-May-08 04:23N 38°35' W 090°12'0 0.1
2018-May-08 03:56N 38°35' W 090°12'0 0.2
2018-May-08 03:30N 38°35' W 090°12'1 1.4
2018-May-08 03:00N 38°36' W 090°12'0 0.3
2018-May-08 02:30N 38°36' W 090°12'0 0.1
2018-May-08 02:00N 38°36' W 090°12'0 0.7
2018-May-08 01:26N 38°35' W 090°12'0 0.2
2018-May-08 01:00N 38°35' W 090°12'1 2.6
2018-May-08 00:30N 38°34' W 090°13'2 3.1
2018-May-08 00:00N 38°35' W 090°12'0 0.2
2018-May-07 23:30N 38°35' W 090°12'0 0.2
2018-May-07 22:53N 38°35' W 090°12'0 0.0
2018-May-07 22:27N 38°35' W 090°12'2 1.4
2018-May-07 21:08N 38°37' W 090°11'0 2.9
2018-May-07 21:00N 38°37' W 090°11'2 3.8
2018-May-07 20:30N 38°36' W 090°12'0 0.0
2018-May-07 20:00N 38°36' W 090°12'0 0.0
2018-May-07 19:29N 38°36' W 090°12'0 0.0
2018-May-07 19:00N 38°36' W 090°12'0 0.9
2018-May-07 18:28N 38°35' W 090°12'0 0.2
2018-May-07 17:55N 38°35' W 090°12'1 1.2
2018-May-07 16:58N 38°34' W 090°13'2 3.4
2018-May-07 16:30N 38°35' W 090°12'0 0.3
2018-May-07 15:54N 38°35' W 090°12'0 0.1
2018-May-07 15:29N 38°35' W 090°12'0 0.5
2018-May-07 15:00N 38°35' W 090°12'0 0.1
2018-May-07 14:28N 38°35' W 090°12'1 1.2
2018-May-07 14:00N 38°36' W 090°12'0 0.0
2018-May-07 13:29N 38°36' W 090°12'0 0.0
2018-May-07 12:53N 38°36' W 090°12'0 0.7
2018-May-07 12:30N 38°35' W 090°12'0 0.1
2018-May-07 11:56N 38°35' W 090°12'0 0.1
2018-May-07 10:44N 38°35' W 090°12'0 0.0
2018-May-07 10:28N 38°35' W 090°12'0 0.8
2018-May-07 09:55N 38°36' W 090°12'0 0.6
2018-May-07 09:29N 38°35' W 090°12'0 0.6
2018-May-07 09:00N 38°36' W 090°12'0 0.0
2018-May-07 08:30N 38°36' W 090°12'0 0.0
2018-May-07 08:00N 38°36' W 090°12'0 0.0
2018-May-07 07:30N 38°36' W 090°12'0 0.0
2018-May-07 07:00N 38°36' W 090°12'0 0.0
2018-May-07 06:30N 38°36' W 090°12'0 0.3
2018-May-07 06:00N 38°36' W 090°12'0 0.3
2018-May-07 05:30N 38°36' W 090°12'0 0.0
2018-May-07 04:59N 38°36' W 090°12'0 0.0
2018-May-07 04:27N 38°36' W 090°12'0 1.0
2018-May-07 04:00N 38°36' W 090°12'1 1.4
2018-May-07 03:30N 38°37' W 090°11'510.4
2018-May-07 03:00N 38°42' W 090°11'1 2.9
2018-May-07 02:30N 38°43' W 090°10'0 0.8
2018-May-07 02:00N 38°43' W 090°10'1 1.4
2018-May-07 01:30N 38°42' W 090°11'2 3.6
2018-May-07 01:00N 38°40' W 090°11'2 4.0
2018-May-07 00:30N 38°38' W 090°11'2 4.3
2018-May-07 00:00N 38°36' W 090°11'1 1.4
2018-May-06 23:27N 38°35' W 090°12'0 0.0
2018-May-06 14:33N 38°35' W 090°12'0 0.0
2018-May-06 14:24N 38°35' W 090°12'0 0.4
2018-May-06 13:58N 38°36' W 090°12'0 0.5
2018-May-06 13:28N 38°35' W 090°12'0 0.2
2018-May-06 12:47N 38°35' W 090°12'0 0.8
2018-May-06 12:29N 38°35' W 090°12'0 0.5
2018-May-06 12:00N 38°35' W 090°12'0 0.0
2018-May-06 11:30N 38°35' W 090°12'0 0.0
2018-May-06 11:00N 38°35' W 090°12'0 0.0
2018-May-06 10:30N 38°35' W 090°12'0 0.7
2018-May-06 10:00N 38°36' W 090°12'0 0.5
2018-May-06 09:30N 38°35' W 090°12'0 0.3
2018-May-06 08:58N 38°36' W 090°12'0 0.1
2018-May-06 08:30N 38°36' W 090°12'0 0.0
2018-May-06 08:00N 38°36' W 090°12'0 0.3
2018-May-06 07:26N 38°35' W 090°12'0 0.7
2018-May-06 06:58N 38°35' W 090°12'0 0.1
2018-May-06 04:57N 38°36' W 090°12'0 0.1
2018-May-06 03:00N 38°35' W 090°12'0 0.2
2018-May-06 02:12N 38°35' W 090°12'0 0.4
2018-May-06 01:33N 38°35' W 090°12'0 0.1
2018-May-06 01:30N 38°35' W 090°12'1 1.0
2018-May-06 00:59N 38°36' W 090°12'0 0.1
2018-May-06 00:30N 38°36' W 090°12'0 0.9
2018-May-05 23:57N 38°35' W 090°12'0 0.1
2018-May-05 23:28N 38°35' W 090°12'0 0.3
2018-May-05 22:54N 38°35' W 090°12'1 2.3
2018-May-05 22:30N 38°36' W 090°11'3 6.4
2018-May-05 21:59N 38°39' W 090°11'0 0.0
2018-May-05 21:29N 38°39' W 090°11'0 0.0
2018-May-05 21:00N 38°39' W 090°11'0 0.0
2018-May-05 20:24N 38°39' W 090°11'0 0.0
2018-May-05 20:00N 38°39' W 090°11'0 0.0
2018-May-05 19:30N 38°39' W 090°11'0 0.0
2018-May-05 19:00N 38°39' W 090°11'0 0.0
2018-May-05 18:26N 38°39' W 090°11'0 0.0
2018-May-05 18:00N 38°39' W 090°11'0 0.0
2018-May-05 17:30N 38°39' W 090°11'  
Track history (hours):
 
Tides and Currents Weather Stations Pressure Air Temp Water Temp Dewpoint Dewpoint Depression Visibility Wind Speed Wind Dir Waves Ship Positions

Allison Rachel

Owner: M/V Allison Rachel, Granite City, IL. More information available from US FCC via Universal Licensing System and Coast Guard Vessel Documentation Center.

Last reported at 2018-May-15 14:18 UTC. Time now 2018-Jun-23 06:21 UTC.
Position N 38°35' W 090°12'.
Warning: this ship's position is 38 days out of date.

Length 21 m.

Type: Ship. MMSI: 367481670.

Date/timePositionNaut miles runAvg speedWind from/ knotsBaromVisibWave heightAir tempDewpointWater temp
2018-May-15 14:18N 38°35' W 090°12'0 0.4
2018-May-15 14:00N 38°35' W 090°12'0 0.2
2018-May-15 13:30N 38°35' W 090°12'0 0.3
2018-May-15 12:58N 38°35' W 090°12'0 0.0
2018-May-15 12:30N 38°35' W 090°12'0 0.2
2018-May-15 11:57N 38°35' W 090°12'0 0.3
2018-May-15 11:24N 38°35' W 090°12'0 0.0
2018-May-15 11:00N 38°35' W 090°12'0 0.5
2018-May-15 10:29N 38°36' W 090°12'0 0.0
2018-May-15 10:01N 38°36' W 090°12'0 0.0
2018-May-15 09:30N 38°36' W 090°12'0 0.3
2018-May-15 09:00N 38°35' W 090°12'0 0.0
2018-May-15 08:03N 38°35' W 090°12'0 0.0
2018-May-15 07:50N 38°35' W 090°12'0 0.4
2018-May-15 07:30N 38°35' W 090°12'0 0.2
2018-May-15 07:01N 38°35' W 090°12'0 0.4
2018-May-15 06:30N 38°36' W 090°12'0 0.0
2018-May-15 06:00N 38°36' W 090°12'0 0.1
2018-May-15 05:30N 38°36' W 090°12'0 0.5
2018-May-15 05:00N 38°35' W 090°12'0 0.0
2018-May-15 04:30N 38°35' W 090°12'1 1.0
2018-May-15 04:00N 38°36' W 090°12'3 5.0
2018-May-15 03:30N 38°38' W 090°11'0 0.2
2018-May-15 03:00N 38°38' W 090°11'0 0.1
2018-May-15 02:30N 38°38' W 090°11'0 0.0
2018-May-15 01:38N 38°38' W 090°11'0 0.2
2018-May-15 01:22N 38°38' W 090°11'0 0.9
2018-May-15 01:00N 38°38' W 090°11'2 3.8
2018-May-15 00:30N 38°36' W 090°12'0 0.5
2018-May-15 00:00N 38°36' W 090°12'0 0.1
2018-May-14 23:30N 38°36' W 090°12'0 0.3
2018-May-14 22:14N 38°35' W 090°12'0 0.1
2018-May-14 21:14N 38°36' W 090°12'0 0.2
2018-May-14 20:57N 38°35' W 090°12'0 0.1
2018-May-14 20:20N 38°35' W 090°12'0 0.0
2018-May-14 19:13N 38°35' W 090°12'0 0.0
2018-May-14 18:55N 38°35' W 090°12'0 0.1
2018-May-14 18:30N 38°35' W 090°12'0 0.1
2018-May-14 17:59N 38°35' W 090°12'0 0.2
2018-May-14 16:56N 38°35' W 090°12'0 0.1
2018-May-14 16:30N 38°35' W 090°12'0 0.3
2018-May-14 15:52N 38°35' W 090°12'0 0.3
2018-May-14 15:24N 38°36' W 090°12'0 0.3
2018-May-14 14:56N 38°35' W 090°12'0 0.0
2018-May-14 14:23N 38°35' W 090°12'0 0.4
2018-May-14 14:00N 38°36' W 090°12'0 0.1
2018-May-14 13:26N 38°35' W 090°12'0 0.2
2018-May-14 12:56N 38°35' W 090°12'0 0.1
2018-May-14 12:30N 38°35' W 090°12'0 0.6
2018-May-14 11:55N 38°36' W 090°12'0 0.1
2018-May-14 11:30N 38°36' W 090°12'0 0.5
2018-May-14 10:34N 38°35' W 090°12'0 1.2
2018-May-14 10:30N 38°35' W 090°12'0 0.0
2018-May-14 09:59N 38°35' W 090°12'0 0.7
2018-May-14 09:30N 38°36' W 090°12'0 0.1
2018-May-14 09:01N 38°36' W 090°12'0 0.1
2018-May-14 08:30N 38°36' W 090°12'0 0.0
2018-May-14 08:01N 38°36' W 090°12'0 0.1
2018-May-14 07:30N 38°36' W 090°12'0 0.0
2018-May-14 07:00N 38°36' W 090°12'0 0.1
2018-May-14 06:28N 38°36' W 090°12'0 0.0
2018-May-14 06:00N 38°36' W 090°12'0 0.0
2018-May-14 05:30N 38°36' W 090°12'0 0.0
2018-May-14 05:00N 38°36' W 090°12'0 0.0
2018-May-14 04:24N 38°36' W 090°12'0 0.3
2018-May-14 04:00N 38°36' W 090°12'0 0.3
2018-May-14 03:30N 38°35' W 090°12'0 0.0
2018-May-14 02:09N 38°35' W 090°12'0 0.7
2018-May-14 01:59N 38°36' W 090°12'0 0.2
2018-May-14 01:27N 38°35' W 090°12'0 0.5
2018-May-14 01:00N 38°35' W 090°12'0 0.4
2018-May-14 00:30N 38°35' W 090°12'5 0.7
2018-May-13 17:03N 38°41' W 090°11'011.0
2018-May-13 17:00N 38°41' W 090°11'1 0.5
2018-May-13 15:39N 38°42' W 090°11'1 4.4
2018-May-13 15:30N 38°41' W 090°11'1 2.7
2018-May-13 15:00N 38°40' W 090°11'1 2.3
2018-May-13 14:30N 38°39' W 090°11'0 0.7
2018-May-13 14:00N 38°38' W 090°11'2 3.2
2018-May-13 13:30N 38°37' W 090°11'1 1.0
2018-May-13 12:25N 38°36' W 090°12'0 0.2
2018-May-13 12:00N 38°36' W 090°12'0 0.6
2018-May-13 11:19N 38°35' W 090°12'0 0.0
2018-May-13 10:46N 38°35' W 090°12'2 8.0
2018-May-13 10:30N 38°37' W 090°11'2 4.1
2018-May-13 10:01N 38°39' W 090°11'0 0.0
2018-May-13 09:30N 38°39' W 090°11'0 0.0
2018-May-13 09:00N 38°39' W 090°11'0 0.0
2018-May-13 08:31N 38°39' W 090°11'0 0.0
2018-May-13 08:00N 38°39' W 090°11'0 0.0
2018-May-13 07:30N 38°39' W 090°11'0 0.0
2018-May-13 07:00N 38°39' W 090°11'0 0.0
2018-May-13 06:30N 38°39' W 090°11'0 0.0
2018-May-13 05:59N 38°39' W 090°11'0 0.0
2018-May-13 05:30N 38°39' W 090°11'0 0.0
2018-May-13 04:59N 38°39' W 090°11'0 0.1
2018-May-13 04:27N 38°39' W 090°11'0 0.1
2018-May-13 04:00N 38°39' W 090°11'0 0.1
2018-May-13 03:30N 38°39' W 090°11'0 0.1
2018-May-13 03:00N 38°39' W 090°11'1 2.4
2018-May-13 02:30N 38°38' W 090°11'0 0.2
2018-May-13 00:48N 38°38' W 090°11'0 0.0
2018-May-13 00:30N 38°38' W 090°11'2 3.2
2018-May-13 00:00N 38°36' W 090°11'1 2.2
2018-May-12 23:28N 38°35' W 090°12'0 0.0
2018-May-12 22:28N 38°35' W 090°12'0 0.8
2018-May-12 21:59N 38°36' W 090°12'0 0.2
2018-May-12 20:03N 38°35' W 090°12'0 0.0
2018-May-12 19:56N 38°35' W 090°12'0 0.0
2018-May-12 19:29N 38°35' W 090°12'0 0.0
2018-May-12 18:54N 38°35' W 090°12'0 0.0
2018-May-12 18:27N 38°35' W 090°12'0 0.4
2018-May-12 18:00N 38°36' W 090°12'0 0.1
2018-May-12 17:30N 38°36' W 090°12'0 0.1
2018-May-12 16:59N 38°35' W 090°12'0 0.0
2018-May-12 16:29N 38°35' W 090°12'0 0.2
2018-May-12 15:59N 38°35' W 090°12'0 0.2
2018-May-12 15:27N 38°35' W 090°12'0 0.0
2018-May-12 13:51N 38°35' W 090°12'0 0.4
2018-May-12 13:30N 38°36' W 090°12'0 0.5
2018-May-12 12:45N 38°35' W 090°12'0 0.1
2018-May-12 12:30N 38°35' W 090°12'0 0.1
2018-May-12 11:59N 38°35' W 090°12'0 0.0
2018-May-12 11:24N 38°35' W 090°12'0 0.3
2018-May-12 11:00N 38°35' W 090°12'0 0.0
2018-May-12 10:30N 38°35' W 090°12'0 0.2
2018-May-12 09:40N 38°36' W 090°12'0 0.4
2018-May-12 09:30N 38°36' W 090°12'0 0.3
2018-May-12 08:58N 38°35' W 090°12'0 0.2
2018-May-12 08:26N 38°35' W 090°12'0 0.1
2018-May-12 08:00N 38°35' W 090°12'0 0.5
2018-May-12 07:29N 38°35' W 090°12'1 2.0
2018-May-12 06:58N 38°36' W 090°12'4 9.1
2018-May-12 06:30N 38°40' W 090°11'2 3.6
2018-May-12 06:00N 38°42' W 090°11'1 1.5
2018-May-12 05:29N 38°43' W 090°10'0 0.8
2018-May-12 05:00N 38°42' W 090°11'1 1.1
2018-May-12 04:31N 38°42' W 090°11'0 0.7
2018-May-12 04:00N 38°42' W 090°11'0 0.1
2018-May-12 03:30N 38°42' W 090°11'0 0.1
2018-May-12 03:00N 38°42' W 090°11'1 1.4
2018-May-12 02:30N 38°41' W 090°11'2 4.5
2018-May-12 02:00N 38°39' W 090°11'2 4.2
2018-May-12 01:29N 38°37' W 090°11'0 0.1
2018-May-12 00:58N 38°37' W 090°11'1 0.8
2018-May-11 23:57N 38°36' W 090°12'0 0.3
2018-May-11 22:34N 38°36' W 090°11'311.4
2018-May-11 22:20N 38°39' W 090°11'1 1.3
2018-May-11 21:55N 38°39' W 090°11'0 0.1
2018-May-11 21:30N 38°39' W 090°11'0 0.2
2018-May-11 20:59N 38°39' W 090°11'0 0.0
2018-May-11 20:29N 38°39' W 090°11'0 0.0
2018-May-11 19:58N 38°39' W 090°11'0 0.0
2018-May-11 19:30N 38°39' W 090°11'0 0.0
2018-May-11 18:16N 38°39' W 090°11'0 0.3
2018-May-11 17:59N 38°39' W 090°11'1 1.9
2018-May-11 17:22N 38°38' W 090°11'0 0.5
2018-May-11 17:00N 38°38' W 090°11'0 0.8
2018-May-11 16:30N 38°38' W 090°11'0 0.8
2018-May-11 15:59N 38°38' W 090°11'1 2.1
2018-May-11 15:22N 38°39' W 090°11'0 0.2
2018-May-11 14:57N 38°39' W 090°11'0 0.2
2018-May-11 14:26N 38°39' W 090°11'0 0.2
2018-May-11 13:54N 38°39' W 090°11'0 0.1
2018-May-11 13:30N 38°39' W 090°11'1 1.6
2018-May-11 12:59N 38°39' W 090°11'0 0.2
2018-May-11 12:28N 38°38' W 090°11'2 4.3
2018-May-11 11:57N 38°36' W 090°11'1 1.9
2018-May-11 11:30N 38°36' W 090°12'0 0.4
2018-May-11 10:56N 38°35' W 090°12'1 1.3
2018-May-11 10:29N 38°36' W 090°12'2 4.1
2018-May-11 09:56N 38°38' W 090°11'0 0.0
2018-May-11 09:29N 38°38' W 090°11'1 1.1
2018-May-11 09:00N 38°39' W 090°11'0 1.0
2018-May-11 08:30N 38°38' W 090°11'0 0.1
2018-May-11 07:58N 38°38' W 090°11'2 3.9
2018-May-11 07:30N 38°36' W 090°11'2 4.1
2018-May-11 06:54N 38°34' W 090°13'4 3.7
2018-May-11 05:54N 38°37' W 090°11'1 1.3
2018-May-11 05:28N 38°38' W 090°11'0 0.0
2018-May-11 05:00N 38°38' W 090°11'0 0.4
2018-May-11 04:29N 38°38' W 090°11'1 1.5
2018-May-11 04:00N 38°37' W 090°11'0 0.0
2018-May-11 03:29N 38°37' W 090°11'1 1.8
2018-May-11 03:00N 38°38' W 090°11'0 0.1
2018-May-11 02:24N 38°38' W 090°11'1 1.3
2018-May-11 02:00N 38°39' W 090°11'2 3.8
2018-May-11 01:24N 38°36' W 090°11'3 4.8
2018-May-11 00:51N 38°34' W 090°13'1 2.4
2018-May-11 00:18N 38°35' W 090°12'0 0.8
2018-May-10 23:42N 38°36' W 090°12'0 0.1
2018-May-10 21:44N 38°36' W 090°12'0 0.2
2018-May-10 21:30N 38°36' W 090°12'0 0.2
2018-May-10 20:56N 38°36' W 090°12'0 0.0
2018-May-10 20:06N 38°36' W 090°12'0 0.0
2018-May-10 19:56N 38°36' W 090°12'0 0.1
2018-May-10 17:24N 38°35' W 090°12'2 4.5
2018-May-10 17:00N 38°37' W 090°11'1 1.8
2018-May-10 16:27N 38°36' W 090°11'1 0.7
2018-May-10 15:00N 38°35' W 090°12'0 0.2
2018-May-10 14:30N 38°35' W 090°12'0 0.6
2018-May-10 13:59N 38°35' W 090°12'1 2.1
2018-May-10 13:19N 38°35' W 090°13'0 0.4
2018-May-10 13:00N 38°35' W 090°13'1 2.9
2018-May-10 12:30N 38°36' W 090°12'0 0.2
2018-May-10 12:00N 38°36' W 090°12'0 0.3
2018-May-10 11:30N 38°35' W 090°12'0 0.1
2018-May-10 11:00N 38°35' W 090°12'0 0.1
2018-May-10 10:30N 38°35' W 090°12'3 5.9
2018-May-10 10:00N 38°38' W 090°11'1 2.6
2018-May-10 09:30N 38°39' W 090°11'0 0.0
2018-May-10 09:00N 38°39' W 090°11'0 0.0
2018-May-10 08:15N 38°39' W 090°11'0 0.1
2018-May-10 07:59N 38°39' W 090°11'0 0.1
2018-May-10 07:30N 38°39' W 090°11'0 0.1
2018-May-10 07:00N 38°39' W 090°11'0 0.1
2018-May-10 06:30N 38°39' W 090°11'0 0.4
2018-May-10 06:00N 38°39' W 090°11'0 0.3
2018-May-10 05:30N 38°39' W 090°11'0 0.0
2018-May-10 05:00N 38°39' W 090°11'0 0.0
2018-May-10 04:30N 38°39' W 090°11'0 0.1
2018-May-10 04:00N 38°39' W 090°11'0 0.1
2018-May-10 03:30N 38°39' W 090°11'0 0.0
2018-May-10 03:00N 38°39' W 090°11'1 1.3
2018-May-10 02:30N 38°39' W 090°11'1 1.1
2018-May-10 01:59N 38°38' W 090°11'0 0.3
2018-May-10 01:30N 38°38' W 090°11'1 1.0
2018-May-10 01:00N 38°39' W 090°11'1 1.5
2018-May-10 00:29N 38°38' W 090°11'2 2.7
2018-May-09 23:38N 38°36' W 090°12'3 0.2
2018-May-09 08:24N 38°39' W 090°11'1 1.8
2018-May-09 07:59N 38°38' W 090°11'0 0.5
2018-May-09 07:30N 38°38' W 090°11'1 1.2
2018-May-09 07:00N 38°39' W 090°11'0 0.8
2018-May-09 06:30N 38°38' W 090°11'0 0.0
2018-May-09 05:31N 38°38' W 090°11'0 0.0
2018-May-09 05:30N 38°38' W 090°11'0 0.0
2018-May-09 05:00N 38°38' W 090°11'0 0.3
2018-May-09 04:30N 38°38' W 090°11'1 2.1
2018-May-09 04:00N 38°39' W 090°11'0 0.4
2018-May-09 03:30N 38°39' W 090°11'0 0.1
2018-May-09 03:00N 38°39' W 090°11'0 0.1
2018-May-09 02:30N 38°39' W 090°11'0 0.3
2018-May-09 02:00N 38°39' W 090°11'0 0.4
2018-May-09 01:30N 38°39' W 090°11'0 0.9
2018-May-09 01:00N 38°39' W 090°11'3 5.1
2018-May-09 00:30N 38°36' W 090°11'3 4.4
2018-May-08 23:55N 38°34' W 090°13'2 3.7
2018-May-08 23:30N 38°35' W 090°12'0 0.0
2018-May-08 22:29N 38°35' W 090°12'0 0.3
2018-May-08 21:48N 38°35' W 090°12'0 0.0
2018-May-08 19:45N 38°35' W 090°12'0 0.3
2018-May-08 19:29N 38°35' W 090°12'0 0.0
2018-May-08 19:00N 38°35' W 090°12'0 0.2
2018-May-08 17:35N 38°35' W 090°12'0 1.2
2018-May-08 17:30N 38°36' W 090°12'0 0.1
2018-May-08 16:58N 38°36' W 090°12'0 0.2
2018-May-08 16:29N 38°36' W 090°12'0 0.2
2018-May-08 15:59N 38°36' W 090°12'1 1.3
2018-May-08 14:48N 38°35' W 090°13'1 2.4
2018-May-08 14:13N 38°35' W 090°12'0 0.3
2018-May-08 13:16N 38°36' W 090°12'0 0.5
2018-May-08 13:00N 38°36' W 090°12'0 0.2
2018-May-08 12:28N 38°35' W 090°12'0 0.2
2018-May-08 12:00N 38°36' W 090°12'0 0.5
2018-May-08 11:30N 38°35' W 090°12'0 0.0
2018-May-08 11:00N 38°35' W 090°12'0 0.7
2018-May-08 10:30N 38°36' W 090°12'0 0.0
2018-May-08 10:00N 38°36' W 090°12'0 0.3
2018-May-08 09:30N 38°36' W 090°12'0 0.1
2018-May-08 08:59N 38°36' W 090°12'0 0.9
2018-May-08 08:30N 38°35' W 090°12'0 0.0
2018-May-08 08:00N 38°35' W 090°12'0 0.3
2018-May-08 07:29N 38°35' W 090°12'0 0.0
2018-May-08 07:00N 38°35' W 090°12'0 0.3
2018-May-08 06:30N 38°35' W 090°12'0 0.2
2018-May-08 06:00N 38°35' W 090°12'0 0.2
2018-May-08 05:30N 38°35' W 090°12'0 0.3
2018-May-08 05:00N 38°35' W 090°12'0 0.2
2018-May-08 04:23N 38°35' W 090°12'0 0.1
2018-May-08 03:56N 38°35' W 090°12'0 0.2
2018-May-08 03:30N 38°35' W 090°12'1 1.4
2018-May-08 03:00N 38°36' W 090°12'0 0.3
2018-May-08 02:30N 38°36' W 090°12'0 0.1
2018-May-08 02:00N 38°36' W 090°12'0 0.7
2018-May-08 01:26N 38°35' W 090°12'0 0.2
2018-May-08 01:00N 38°35' W 090°12'1 2.6
2018-May-08 00:30N 38°34' W 090°13'2 3.1
2018-May-08 00:00N 38°35' W 090°12'0 0.2
2018-May-07 23:30N 38°35' W 090°12'0 0.2
2018-May-07 22:53N 38°35' W 090°12'0 0.0
2018-May-07 22:27N 38°35' W 090°12'2 1.4
2018-May-07 21:08N 38°37' W 090°11'0 2.9
2018-May-07 21:00N 38°37' W 090°11'2 3.8
2018-May-07 20:30N 38°36' W 090°12'0 0.0
2018-May-07 20:00N 38°36' W 090°12'0 0.0
2018-May-07 19:29N 38°36' W 090°12'0 0.0
2018-May-07 19:00N 38°36' W 090°12'0 0.9
2018-May-07 18:28N 38°35' W 090°12'0 0.2
2018-May-07 17:55N 38°35' W 090°12'1 1.2
2018-May-07 16:58N 38°34' W 090°13'2 3.4
2018-May-07 16:30N 38°35' W 090°12'0 0.3
2018-May-07 15:54N 38°35' W 090°12'0 0.1
2018-May-07 15:29N 38°35' W 090°12'0 0.5
2018-May-07 15:00N 38°35' W 090°12'0 0.1
2018-May-07 14:28N 38°35' W 090°12'1 1.2
2018-May-07 14:00N 38°36' W 090°12'0 0.0
2018-May-07 13:29N 38°36' W 090°12'0 0.0
2018-May-07 12:53N 38°36' W 090°12'0 0.7
2018-May-07 12:30N 38°35' W 090°12'0 0.1
2018-May-07 11:56N 38°35' W 090°12'0 0.1
2018-May-07 10:44N 38°35' W 090°12'0 0.0
2018-May-07 10:28N 38°35' W 090°12'0 0.8
2018-May-07 09:55N 38°36' W 090°12'0 0.6
2018-May-07 09:29N 38°35' W 090°12'0 0.6
2018-May-07 09:00N 38°36' W 090°12'0 0.0
2018-May-07 08:30N 38°36' W 090°12'0 0.0
2018-May-07 08:00N 38°36' W 090°12'0 0.0
2018-May-07 07:30N 38°36' W 090°12'0 0.0
2018-May-07 07:00N 38°36' W 090°12'0 0.0
2018-May-07 06:30N 38°36' W 090°12'0 0.3
2018-May-07 06:00N 38°36' W 090°12'0 0.3
2018-May-07 05:30N 38°36' W 090°12'0 0.0
2018-May-07 04:59N 38°36' W 090°12'0 0.0
2018-May-07 04:27N 38°36' W 090°12'0 1.0
2018-May-07 04:00N 38°36' W 090°12'1 1.4
2018-May-07 03:30N 38°37' W 090°11'510.4
2018-May-07 03:00N 38°42' W 090°11'1 2.9
2018-May-07 02:30N 38°43' W 090°10'0 0.8
2018-May-07 02:00N 38°43' W 090°10'1 1.4
2018-May-07 01:30N 38°42' W 090°11'2 3.6
2018-May-07 01:00N 38°40' W 090°11'2 4.0
2018-May-07 00:30N 38°38' W 090°11'2 4.3
2018-May-07 00:00N 38°36' W 090°11'1 1.4
2018-May-06 23:27N 38°35' W 090°12'0 0.0
2018-May-06 14:33N 38°35' W 090°12'0 0.0
2018-May-06 14:24N 38°35' W 090°12'0 0.4
2018-May-06 13:58N 38°36' W 090°12'0 0.5
2018-May-06 13:28N 38°35' W 090°12'0 0.2
2018-May-06 12:47N 38°35' W 090°12'0 0.8
2018-May-06 12:29N 38°35' W 090°12'0 0.5
2018-May-06 12:00N 38°35' W 090°12'0 0.0
2018-May-06 11:30N 38°35' W 090°12'0 0.0
2018-May-06 11:00N 38°35' W 090°12'0 0.0
2018-May-06 10:30N 38°35' W 090°12'0 0.7
2018-May-06 10:00N 38°36' W 090°12'0 0.5
2018-May-06 09:30N 38°35' W 090°12'0 0.3
2018-May-06 08:58N 38°36' W 090°12'0 0.1
2018-May-06 08:30N 38°36' W 090°12'0 0.0
2018-May-06 08:00N 38°36' W 090°12'0 0.3
2018-May-06 07:26N 38°35' W 090°12'0 0.7
2018-May-06 06:58N 38°35' W 090°12'0 0.1
2018-May-06 04:57N 38°36' W 090°12'0 0.1
2018-May-06 03:00N 38°35' W 090°12'0 0.2
2018-May-06 02:12N 38°35' W 090°12'0 0.4
2018-May-06 01:33N 38°35' W 090°12'0 0.1
2018-May-06 01:30N 38°35' W 090°12'1 1.0
2018-May-06 00:59N 38°36' W 090°12'0 0.1
2018-May-06 00:30N 38°36' W 090°12'0 0.9
2018-May-05 23:57N 38°35' W 090°12'0 0.1
2018-May-05 23:28N 38°35' W 090°12'0 0.3
2018-May-05 22:54N 38°35' W 090°12'1 2.3
2018-May-05 22:30N 38°36' W 090°11'3 6.4
2018-May-05 21:59N 38°39' W 090°11'0 0.0
2018-May-05 21:29N 38°39' W 090°11'0 0.0
2018-May-05 21:00N 38°39' W 090°11'0 0.0
2018-May-05 20:24N 38°39' W 090°11'0 0.0
2018-May-05 20:00N 38°39' W 090°11'0 0.0
2018-May-05 19:30N 38°39' W 090°11'0 0.0
2018-May-05 19:00N 38°39' W 090°11'0 0.0
2018-May-05 18:26N 38°39' W 090°11'0 0.0
2018-May-05 18:00N 38°39' W 090°11'0 0.0
2018-May-05 17:30N 38°39' W 090°11'  

Dump ship's entire track history